Time;durP1;ratioP1;P1;durP2;ratioP2;P2;SDS_P1;SDS_P2;PMS_P1;PMS_P2;Temp;Humidity;BMP_temperature;BMP_pressure;BME280_temperature;BME280_humidity;BME280_pressure;Samples;Min_cycle;Max_cycle;Signal;HPM_P1;HPM_P2
2023/11/05 00:01:26;;;;;;;14.40;2.80;;;;;;;8.68;100.00;97005.50;5086171;28;20058;-75
2023/11/05 00:03:51;;;;;;;11.68;2.50;;;;;;;8.65;100.00;97010.03;5087414;28;20034;-75
2023/11/05 00:06:17;;;;;;;7.95;2.25;;;;;;;8.65;100.00;97004.81;5084233;28;20052;-75
2023/11/05 00:08:42;;;;;;;10.48;2.28;;;;;;;8.65;100.00;96998.81;5083695;28;20220;-75
2023/11/05 00:11:07;;;;;;;7.60;2.58;;;;;;;8.67;100.00;96998.66;5084107;28;20290;-75
2023/11/05 00:13:33;;;;;;;13.18;2.20;;;;;;;8.65;100.00;96991.78;5082572;28;20318;-75
2023/11/05 00:15:58;;;;;;;14.15;2.67;;;;;;;8.64;100.00;96991.94;5081183;28;20107;-75
2023/11/05 00:18:23;;;;;;;7.68;2.33;;;;;;;8.65;100.00;96985.75;5072460;28;20036;-76
2023/11/05 00:20:49;;;;;;;9.07;2.33;;;;;;;8.65;100.00;96983.16;5077230;28;20051;-75
2023/11/05 00:23:14;;;;;;;8.77;2.97;;;;;;;8.68;100.00;96982.88;5093263;28;20077;-75
2023/11/05 00:25:40;;;;;;;7.75;2.15;;;;;;;8.68;100.00;96975.03;5096616;28;20492;-75
2023/11/05 00:28:05;;;;;;;9.50;2.00;;;;;;;8.69;100.00;96973.25;5097729;28;20036;-75
2023/11/05 00:30:31;;;;;;;6.72;2.15;;;;;;;8.69;100.00;96970.63;5097227;28;20036;-76
2023/11/05 00:32:56;;;;;;;10.13;2.25;;;;;;;8.66;100.00;96966.53;5094163;28;20073;-75
2023/11/05 00:35:22;;;;;;;10.90;1.95;;;;;;;8.68;100.00;96968.97;5085796;28;20032;-75
2023/11/05 00:37:47;;;;;;;11.02;2.33;;;;;;;8.67;100.00;96965.56;5087465;28;20246;-75
2023/11/05 00:40:12;;;;;;;15.00;2.40;;;;;;;8.70;100.00;96960.06;5085595;28;20359;-75
2023/11/05 00:42:38;;;;;;;11.25;2.75;;;;;;;8.70;100.00;96962.69;5086679;28;20036;-75
2023/11/05 00:45:04;;;;;;;10.52;2.67;;;;;;;8.71;100.00;96960.88;5087244;28;20044;-75
2023/11/05 00:47:30;;;;;;;9.80;1.98;;;;;;;8.73;100.00;96964.16;5085277;28;20212;-75
2023/11/05 00:49:55;;;;;;;10.38;1.85;;;;;;;8.74;100.00;96958.00;5086719;28;20054;-75
2023/11/05 00:52:21;;;;;;;5.85;1.98;;;;;;;8.77;100.00;96961.13;5095176;28;20031;-75
2023/11/05 00:54:46;;;;;;;9.60;1.95;;;;;;;8.79;100.00;96966.19;5097145;28;20331;-75
2023/11/05 00:57:11;;;;;;;15.38;2.38;;;;;;;8.80;100.00;96966.06;5078517;28;20077;-75
2023/11/05 00:59:37;;;;;;;15.80;2.38;;;;;;;8.80;100.00;96965.22;5096783;28;20028;-75
2023/11/05 01:02:02;;;;;;;7.18;2.72;;;;;;;8.82;100.00;96969.34;5096791;28;20036;-75
2023/11/05 01:04:28;;;;;;;7.55;1.88;;;;;;;8.83;100.00;96970.16;5096071;28;20281;-75
2023/11/05 01:06:53;;;;;;;14.95;2.28;;;;;;;8.84;100.00;96967.41;5097061;28;20044;-75
2023/11/05 01:09:18;;;;;;;12.38;2.75;;;;;;;8.86;100.00;96966.41;5097085;28;20445;-75
2023/11/05 01:11:46;;;;;;;7.85;2.15;;;;;;;8.85;100.00;96963.00;5078182;28;20024;-75
2023/11/05 01:14:12;;;;;;;5.43;1.80;;;;;;;8.85;100.00;96955.16;5096396;28;20371;-75
2023/11/05 01:16:37;;;;;;;7.68;2.55;;;;;;;8.86;100.00;96964.66;5096537;28;20051;-75
2023/11/05 01:19:02;;;;;;;9.70;2.47;;;;;;;8.88;100.00;96961.88;5096465;28;20055;-75
2023/11/05 01:21:28;;;;;;;4.95;1.38;;;;;;;8.90;100.00;96959.97;5097164;28;20040;-75
2023/11/05 01:23:53;;;;;;;10.23;1.90;;;;;;;8.90;100.00;96958.16;5097180;28;20035;-75
2023/11/05 01:26:19;;;;;;;10.25;2.22;;;;;;;8.91;100.00;96949.34;5097212;28;20267;-75
2023/11/05 01:28:44;;;;;;;7.38;2.05;;;;;;;8.91;100.00;96949.34;5097228;28;20081;-75
2023/11/05 01:31:09;;;;;;;11.95;2.45;;;;;;;8.89;100.00;96942.66;5097398;28;20077;-75
2023/11/05 01:33:35;;;;;;;7.80;2.10;;;;;;;8.90;100.00;96941.69;5096837;28;20056;-75
2023/11/05 01:36:00;;;;;;;11.75;2.45;;;;;;;8.88;100.00;96951.44;5095888;28;20032;-75
2023/11/05 01:38:25;;;;;;;6.97;1.67;;;;;;;8.89;100.00;96953.91;5097045;28;20047;-75
2023/11/05 01:40:51;;;;;;;8.07;1.70;;;;;;;8.90;100.00;96952.13;5096992;28;20103;-75
2023/11/05 01:43:16;;;;;;;8.05;1.90;;;;;;;8.90;100.00;96944.31;5078445;28;20055;-75
2023/11/05 01:45:41;;;;;;;7.78;2.03;;;;;;;8.89;100.00;96946.06;5096612;28;20032;-75
2023/11/05 01:48:07;;;;;;;5.38;1.70;;;;;;;8.88;100.00;96947.06;5097274;28;20251;-75
2023/11/05 01:50:33;;;;;;;8.57;1.92;;;;;;;8.89;100.00;96946.06;5096320;28;20235;-75
2023/11/05 01:52:59;;;;;;;7.18;1.77;;;;;;;8.88;100.00;96941.00;5078705;28;20028;-75
2023/11/05 01:55:25;;;;;;;13.65;2.17;;;;;;;8.87;100.00;96942.78;5096905;28;20030;-75
2023/11/05 01:57:52;;;;;;;12.82;2.05;;;;;;;8.88;100.00;96952.28;5096384;28;20043;-75
2023/11/05 02:02:43;;;;;;;3.70;1.23;;;;;;;8.91;100.00;96946.75;5093682;28;20218;-75
2023/11/05 02:05:09;;;;;;;8.20;1.95;;;;;;;8.91;100.00;96941.53;5096162;28;20231;-75
2023/11/05 02:07:35;;;;;;;3.55;1.30;;;;;;;8.93;100.00;96938.78;5097692;28;20055;-75
2023/11/05 02:10:02;;;;;;;6.47;1.63;;;;;;;8.95;100.00;96944.66;5096548;28;20215;-75
2023/11/05 02:12:28;;;;;;;9.27;2.17;;;;;;;8.94;100.00;96940.44;5096311;28;20299;-75
2023/11/05 02:14:54;;;;;;;6.10;1.92;;;;;;;8.92;100.00;96945.78;5096239;28;20035;-75
2023/11/05 02:17:20;;;;;;;13.15;1.90;;;;;;;8.91;100.00;96941.53;5096383;28;20055;-75
2023/11/05 02:19:47;;;;;;;7.90;2.28;;;;;;;8.89;100.00;96934.81;5095756;28;20061;-75
2023/11/05 02:22:15;;;;;;;10.13;2.22;;;;;;;8.90;100.00;96939.91;5096064;28;20047;-75
2023/11/05 02:24:44;;;;;;;5.10;1.83;;;;;;;8.90;100.00;96947.72;5095799;28;20269;-75
2023/11/05 02:27:10;;;;;;;7.97;1.52;;;;;;;8.91;100.00;96944.13;5095921;28;20035;-75
2023/11/05 02:29:35;;;;;;;4.22;1.58;;;;;;;8.92;100.00;96937.97;5096210;28;20043;-75
2023/11/05 02:32:03;;;;;;;12.32;2.17;;;;;;;8.93;100.00;96941.38;5095993;28;20174;-75
2023/11/05 02:34:32;;;;;;;8.30;1.77;;;;;;;8.91;100.00;96938.09;5095272;28;20036;-75
2023/11/05 02:36:58;;;;;;;2.90;1.25;;;;;;;8.96;100.00;96941.09;5096077;28;20056;-75
2023/11/05 02:39:24;;;;;;;4.78;1.65;;;;;;;8.96;100.00;96931.47;5095795;28;20101;-75
2023/11/05 02:41:49;;;;;;;6.95;1.60;;;;;;;8.98;100.00;96941.78;5095715;28;20222;-75
2023/11/05 02:44:15;;;;;;;5.03;1.70;;;;;;;8.99;100.00;96940.81;5095746;28;20127;-75
2023/11/05 02:46:40;;;;;;;4.88;1.60;;;;;;;8.98;100.00;96929.53;5095450;28;20032;-75
2023/11/05 02:49:09;;;;;;;8.07;1.98;;;;;;;9.00;100.00;96924.16;5095799;28;20031;-75
2023/11/05 02:51:35;;;;;;;4.95;1.60;;;;;;;8.96;100.00;96928.88;5095928;28;20035;-75
2023/11/05 02:54:02;;;;;;;7.38;2.00;;;;;;;8.97;100.00;96929.72;5095578;28;20463;-75
2023/11/05 02:56:27;;;;;;;6.10;2.10;;;;;;;8.98;100.00;96926.91;5095144;28;20090;-75
2023/11/05 02:58:52;;;;;;;4.88;1.77;;;;;;;8.96;100.00;96930.66;5096239;28;20016;-75
2023/11/05 03:01:27;;;;;;;5.22;1.80;;;;;;;8.96;100.00;96923.66;5095430;28;20216;-75
2023/11/05 03:03:53;;;;;;;4.07;1.48;;;;;;;8.98;100.00;96926.13;5095380;28;20028;-75
2023/11/05 03:06:19;;;;;;;4.90;1.58;;;;;;;8.96;100.00;96921.03;5095300;28;20075;-75
2023/11/05 03:08:45;;;;;;;6.70;1.80;;;;;;;8.97;100.00;96914.88;5094974;28;20293;-75
2023/11/05 03:11:10;;;;;;;4.32;1.50;;;;;;;8.96;100.00;96917.63;5095030;28;20046;-75
2023/11/05 03:13:36;;;;;;;4.75;1.40;;;;;;;8.97;100.00;96920.09;5094815;28;20032;-75
2023/11/05 03:16:02;;;;;;;3.38;1.60;;;;;;;8.98;100.00;96911.28;5094955;28;20024;-75
2023/11/05 03:18:27;;;;;;;7.13;2.05;;;;;;;9.00;100.00;96908.50;5094679;28;20042;-75
2023/11/05 03:20:53;;;;;;;6.22;1.80;;;;;;;9.00;100.00;96911.97;5094827;28;20035;-75
2023/11/05 03:23:18;;;;;;;4.55;1.60;;;;;;;9.00;100.00;96911.97;5094867;28;20054;-75
2023/11/05 03:25:44;;;;;;;4.05;1.58;;;;;;;9.00;100.00;96911.13;5094733;28;20038;-75
2023/11/05 03:28:09;;;;;;;2.40;1.50;;;;;;;9.03;100.00;96908.22;5094753;28;20055;-75
2023/11/05 03:30:34;;;;;;;2.78;1.50;;;;;;;9.05;100.00;96910.69;5094453;28;20036;-75
2023/11/05 03:33:03;;;;;;;3.50;1.85;;;;;;;9.04;100.00;96915.09;5095122;28;20103;-75
2023/11/05 03:35:28;;;;;;;4.13;1.92;;;;;;;9.05;100.00;96911.50;5094026;28;20024;-75
2023/11/05 03:37:54;;;;;;;3.35;1.73;;;;;;;9.07;100.00;96922.59;5094753;28;20039;-75
2023/11/05 03:40:19;;;;;;;5.45;1.70;;;;;;;9.06;100.00;96915.75;5094555;28;20032;-75
2023/11/05 03:42:44;;;;;;;2.88;1.63;;;;;;;9.08;100.00;96920.81;5094348;28;20036;-75
2023/11/05 03:45:10;;;;;;;6.88;2.50;;;;;;;9.07;100.00;96920.00;5094819;28;20027;-76
2023/11/05 03:47:35;;;;;;;5.47;2.47;;;;;;;9.06;100.00;96926.22;5094918;28;20119;-75
2023/11/05 03:50:01;;;;;;;4.32;2.00;;;;;;;9.09;100.00;96932.91;5094495;28;20326;-75
2023/11/05 03:52:26;;;;;;;5.63;2.83;;;;;;;9.09;100.00;96932.91;5093891;28;20039;-75
2023/11/05 03:54:53;;;;;;;6.68;2.53;;;;;;;9.09;100.00;96936.31;5094375;28;20035;-75
2023/11/05 03:57:18;;;;;;;4.18;2.35;;;;;;;9.09;100.00;96928.50;5076234;28;20023;-75
2023/11/05 03:59:44;;;;;;;8.35;2.65;;;;;;;9.06;100.00;96933.19;5093815;28;20036;-75
2023/11/05 04:02:09;;;;;;;5.28;2.25;;;;;;;9.07;100.00;96932.25;5094699;28;20024;-75
2023/11/05 04:04:35;;;;;;;5.68;2.65;;;;;;;9.10;100.00;96931.94;5094409;28;20349;-75
2023/11/05 04:07:04;;;;;;;3.67;2.08;;;;;;;9.10;100.00;96930.16;5073164;28;20044;-75
2023/11/05 04:09:30;;;;;;;6.00;2.20;;;;;;;9.10;100.00;96934.56;5074088;28;20036;-75
2023/11/05 04:11:55;;;;;;;4.40;1.83;;;;;;;9.12;100.00;96936.03;5074275;28;20044;-75
2023/11/05 04:14:21;;;;;;;5.55;1.95;;;;;;;9.13;100.00;96936.84;5074055;28;20040;-75
2023/11/05 04:16:46;;;;;;;4.13;2.20;;;;;;;9.12;100.00;96943.06;5074341;28;20036;-75
2023/11/05 04:19:14;;;;;;;3.20;1.67;;;;;;;9.13;100.00;96942.91;5073875;28;20045;-75
2023/11/05 04:21:39;;;;;;;9.27;2.13;;;;;;;9.13;100.00;96942.06;5074417;28;20075;-75
2023/11/05 04:24:05;;;;;;;5.90;2.38;;;;;;;9.14;100.00;96941.94;5074503;28;20043;-75
2023/11/05 04:26:30;;;;;;;2.42;1.85;;;;;;;9.15;100.00;96945.34;5073641;28;20047;-75
2023/11/05 04:28:56;;;;;;;8.23;2.70;;;;;;;9.15;100.00;96942.75;5074346;28;20222;-75
2023/11/05 04:31:22;;;;;;;2.85;1.70;;;;;;;9.16;100.00;96939.19;5073913;28;20251;-75
2023/11/05 04:33:48;;;;;;;6.00;2.30;;;;;;;9.16;100.00;96947.81;5073685;28;20032;-75
2023/11/05 04:36:13;;;;;;;4.05;1.83;;;;;;;9.15;100.00;96938.38;5073828;28;20180;-75
2023/11/05 04:38:39;;;;;;;9.90;2.72;;;;;;;9.14;100.00;96944.53;5073689;28;20265;-75
2023/11/05 04:41:05;;;;;;;4.60;2.17;;;;;;;9.17;100.00;96940.84;5074632;28;20360;-75
2023/11/05 04:43:30;;;;;;;7.63;2.58;;;;;;;9.16;100.00;96944.41;5073734;28;20032;-75
2023/11/05 04:45:58;;;;;;;4.93;1.80;;;;;;;9.18;100.00;96950.28;5073919;28;20526;-76
2023/11/05 04:48:23;;;;;;;3.17;1.67;;;;;;;9.19;100.00;96949.34;5072244;28;20028;-76
2023/11/05 04:50:48;;;;;;;2.97;1.80;;;;;;;9.20;100.00;96948.34;5073398;28;20036;-75
2023/11/05 04:53:14;;;;;;;3.70;1.75;;;;;;;9.21;100.00;96950.81;5073809;28;20077;-75
2023/11/05 04:55:39;;;;;;;6.53;2.38;;;;;;;9.20;100.00;96946.56;5073776;28;20036;-75
2023/11/05 04:58:04;;;;;;;8.98;2.55;;;;;;;9.21;100.00;96947.38;5074016;28;20228;-75
2023/11/05 05:00:30;;;;;;;8.32;2.60;;;;;;;9.20;100.00;96953.56;5073574;28;20039;-75
2023/11/05 05:02:55;;;;;;;4.50;1.88;;;;;;;9.20;100.00;96946.56;5073747;28;20020;-75
2023/11/05 05:05:20;;;;;;;3.75;1.88;;;;;;;9.21;100.00;96948.19;5075785;28;20051;-76
2023/11/05 05:07:46;;;;;;;10.75;2.60;;;;;;;9.19;100.00;96959.78;5093430;28;20068;-75
2023/11/05 05:10:11;;;;;;;2.80;1.88;;;;;;;9.22;100.00;96960.28;5076194;28;20360;-75
2023/11/05 05:12:37;;;;;;;3.30;1.85;;;;;;;9.24;100.00;96954.94;5097315;28;20035;-75
2023/11/05 05:15:05;;;;;;;2.25;1.73;;;;;;;9.26;100.00;96959.97;5098077;28;20032;-76
2023/11/05 05:17:30;;;;;;;6.05;2.63;;;;;;;9.26;100.00;96958.22;5097215;28;20472;-76
2023/11/05 05:19:56;;;;;;;9.20;2.25;;;;;;;9.26;100.00;96965.19;5097349;28;20413;-76
2023/11/05 05:22:22;;;;;;;6.50;2.60;;;;;;;9.26;100.00;96962.59;5097513;28;20028;-75
2023/11/05 05:24:47;;;;;;;4.32;1.70;;;;;;;9.25;100.00;96961.78;5078715;28;20265;-75
2023/11/05 05:27:12;;;;;;;5.00;1.90;;;;;;;9.27;100.00;96966.84;5097820;28;20035;-75
2023/11/05 05:29:38;;;;;;;4.13;2.08;;;;;;;9.28;100.00;96963.25;5097265;28;20141;-75
2023/11/05 05:32:04;;;;;;;5.43;2.45;;;;;;;9.27;100.00;96966.84;5097390;28;20027;-75
2023/11/05 05:34:30;;;;;;;5.75;2.10;;;;;;;9.26;100.00;96970.41;5078321;28;20027;-75
2023/11/05 05:36:55;;;;;;;3.53;1.92;;;;;;;9.27;100.00;96972.88;5096884;28;20239;-75
2023/11/05 05:39:20;;;;;;;5.22;2.38;;;;;;;9.29;100.00;96978.78;5096153;28;20123;-75
2023/11/05 05:41:46;;;;;;;3.88;1.55;;;;;;;9.30;100.00;96980.44;5095989;28;20028;-75
2023/11/05 05:44:11;;;;;;;4.47;1.77;;;;;;;9.29;100.00;96981.38;5096211;28;20081;-76
2023/11/05 05:46:37;;;;;;;2.90;1.48;;;;;;;9.29;100.00;96986.63;5096436;28;20223;-76
2023/11/05 05:49:02;;;;;;;4.03;1.73;;;;;;;9.29;100.00;96984.00;5097504;28;20331;-76
2023/11/05 05:51:28;;;;;;;3.20;2.00;;;;;;;9.29;100.00;96981.38;5096228;28;20404;-75
2023/11/05 05:53:53;;;;;;;4.32;1.73;;;;;;;9.29;100.00;96984.00;5097149;28;20091;-76
2023/11/05 05:56:18;;;;;;;1.95;1.60;;;;;;;9.30;100.00;96988.25;5096786;28;20388;-76
2023/11/05 05:58:44;;;;;;;2.53;1.60;;;;;;;9.30;100.00;96990.06;5096661;28;20032;-76
2023/11/05 06:01:10;;;;;;;4.85;1.88;;;;;;;9.31;100.00;96989.88;5097195;28;20036;-76
2023/11/05 06:03:35;;;;;;;4.90;2.05;;;;;;;9.31;100.00;96989.06;5096356;28;20398;-76
2023/11/05 06:06:01;;;;;;;3.80;1.52;;;;;;;9.30;100.00;96987.44;5096549;28;20407;-76
2023/11/05 06:08:26;;;;;;;5.95;1.85;;;;;;;9.29;100.00;96996.25;5096541;28;20105;-76
2023/11/05 06:10:51;;;;;;;3.50;1.75;;;;;;;9.29;100.00;97002.28;5096750;28;20035;-76
2023/11/05 06:13:19;;;;;;;1.95;1.80;;;;;;;9.28;100.00;96995.44;5078322;28;20096;-75
2023/11/05 06:15:45;;;;;;;3.63;1.95;;;;;;;9.29;100.00;96994.44;5096172;28;20390;-75
2023/11/05 06:18:10;;;;;;;4.85;2.15;;;;;;;9.30;100.00;97003.94;5096670;28;20039;-75
2023/11/05 06:20:36;;;;;;;7.63;2.75;;;;;;;9.27;100.00;97004.22;5095564;28;20341;-76
2023/11/05 06:23:01;;;;;;;7.63;2.10;;;;;;;9.29;100.00;97007.50;5096149;28;20040;-76
2023/11/05 06:25:26;;;;;;;6.03;2.25;;;;;;;9.32;100.00;97006.41;5096052;28;20042;-76
2023/11/05 06:27:53;;;;;;;4.95;2.25;;;;;;;9.32;100.00;97019.44;5096554;28;20036;-75
2023/11/05 06:30:19;;;;;;;4.97;2.03;;;;;;;9.32;100.00;97017.66;5096391;28;20226;-75
2023/11/05 06:32:45;;;;;;;4.20;1.80;;;;;;;9.32;100.00;97020.28;5095839;28;20035;-75
2023/11/05 06:35:11;;;;;;;4.13;1.98;;;;;;;9.33;100.00;97028.91;5095956;28;20042;-75
2023/11/05 06:37:36;;;;;;;6.57;2.28;;;;;;;9.32;100.00;97030.72;5095386;28;20039;-75
2023/11/05 06:40:03;;;;;;;6.50;2.00;;;;;;;9.33;100.00;97034.13;5078329;28;20036;-75
2023/11/05 06:42:29;;;;;;;2.97;1.70;;;;;;;9.33;100.00;97034.97;5095421;28;20317;-75
2023/11/05 06:44:54;;;;;;;4.38;2.10;;;;;;;9.33;100.00;97040.19;5095887;28;20343;-75
2023/11/05 06:47:19;;;;;;;2.53;1.60;;;;;;;9.34;100.00;97046.22;5077563;28;20034;-75
2023/11/05 06:49:45;;;;;;;6.25;2.28;;;;;;;9.33;100.00;97055.03;5095631;28;20036;-76
2023/11/05 06:52:10;;;;;;;4.05;1.85;;;;;;;9.33;100.00;97053.25;5095580;28;20038;-76
2023/11/05 06:54:36;;;;;;;2.92;1.90;;;;;;;9.34;100.00;97065.31;5095234;28;20036;-76
2023/11/05 06:57:03;;;;;;;8.45;1.90;;;;;;;9.35;100.00;97066.13;5095650;28;20227;-75
2023/11/05 06:59:29;;;;;;;6.15;1.95;;;;;;;9.35;100.00;97066.97;5095264;28;20042;-76
2023/11/05 07:01:54;;;;;;;4.65;2.20;;;;;;;9.35;100.00;97072.22;5095834;28;20099;-76
2023/11/05 07:04:20;;;;;;;11.27;2.15;;;;;;;9.34;100.00;97067.94;5095395;28;20383;-76
2023/11/05 07:06:46;;;;;;;9.95;2.60;;;;;;;9.34;100.00;97075.78;5095266;28;20792;-75
2023/11/05 07:09:12;;;;;;;7.35;2.10;;;;;;;9.37;100.00;97078.09;5076076;28;20048;-75
2023/11/05 07:11:38;;;;;;;5.95;2.38;;;;;;;9.39;100.00;97077.97;5075025;28;20325;-75
2023/11/05 07:14:03;;;;;;;8.15;2.42;;;;;;;9.39;100.00;97084.00;5075437;28;20036;-75
2023/11/05 07:16:29;;;;;;;5.93;2.47;;;;;;;9.38;100.00;97079.72;5074514;28;20313;-76
2023/11/05 07:18:54;;;;;;;7.25;2.17;;;;;;;9.39;100.00;97085.78;5075147;28;20259;-75
2023/11/05 07:21:19;;;;;;;7.63;2.15;;;;;;;9.38;100.00;97089.34;5074779;28;20062;-75
2023/11/05 07:23:47;;;;;;;14.10;2.83;;;;;;;9.39;100.00;97093.63;5074701;28;20078;-75
2023/11/05 07:26:12;;;;;;;12.27;2.97;;;;;;;9.37;100.00;97104.22;5074952;28;20032;-76
2023/11/05 07:28:38;;;;;;;5.32;2.00;;;;;;;9.40;100.00;97097.88;5074229;28;20390;-75
2023/11/05 07:31:04;;;;;;;10.45;2.13;;;;;;;9.42;100.00;97111.59;5074954;28;20059;-76
2023/11/05 07:33:29;;;;;;;5.18;2.20;;;;;;;9.43;100.00;97110.63;5073797;28;20339;-75
2023/11/05 07:35:54;;;;;;;4.65;2.03;;;;;;;9.44;100.00;97117.53;5074484;28;20213;-75
2023/11/05 07:38:21;;;;;;;8.48;2.65;;;;;;;9.44;100.00;97120.13;5056724;28;20021;-75
2023/11/05 07:40:47;;;;;;;11.55;2.58;;;;;;;9.46;100.00;97126.03;5056245;28;20032;-75
2023/11/05 07:43:13;;;;;;;6.68;2.38;;;;;;;9.46;100.00;97125.19;5074549;28;20038;-75
2023/11/05 07:45:39;;;;;;;9.88;2.47;;;;;;;9.45;100.00;97126.97;5074020;28;20062;-75
2023/11/05 07:48:05;;;;;;;3.90;2.30;;;;;;;9.45;100.00;97131.38;5074462;28;20263;-75
2023/11/05 07:50:30;;;;;;;8.98;2.70;;;;;;;9.45;100.00;97140.03;5073445;28;20231;-75
2023/11/05 07:52:56;;;;;;;9.32;2.35;;;;;;;9.46;100.00;97143.47;5074373;28;20178;-75
2023/11/05 07:55:22;;;;;;;10.90;3.00;;;;;;;9.46;100.00;97144.31;5074020;28;20062;-75
2023/11/05 07:57:48;;;;;;;12.38;3.25;;;;;;;9.48;100.00;97144.13;5074268;28;20039;-75
2023/11/05 08:00:17;;;;;;;5.80;2.85;;;;;;;9.51;100.00;97155.13;5074474;28;20032;-75
2023/11/05 08:02:43;;;;;;;9.50;2.40;;;;;;;9.51;100.00;97152.50;5073985;28;20036;-75
2023/11/05 08:05:09;;;;;;;8.38;2.28;;;;;;;9.53;100.00;97152.34;5074127;28;20063;-75
2023/11/05 08:07:34;;;;;;;13.30;2.97;;;;;;;9.55;100.00;97169.56;5073760;28;20060;-75
2023/11/05 08:10:00;;;;;;;7.93;2.58;;;;;;;9.56;100.00;97170.38;5074139;28;20408;-75
2023/11/05 08:12:27;;;;;;;6.85;2.13;;;;;;;9.58;100.00;97173.66;5082882;28;20052;-75
2023/11/05 08:14:53;;;;;;;6.07;2.35;;;;;;;9.59;100.00;97172.69;5094857;28;20595;-76
2023/11/05 08:17:19;;;;;;;10.63;3.13;;;;;;;9.63;100.00;97187.09;5094379;28;20051;-75
2023/11/05 08:19:44;;;;;;;13.30;3.20;;;;;;;9.63;100.00;97181.88;5094033;28;20088;-75
2023/11/05 08:22:10;;;;;;;11.45;2.65;;;;;;;9.65;100.00;97192.19;5094396;28;20047;-75
2023/11/05 08:24:36;;;;;;;13.63;3.25;;;;;;;9.66;100.00;97185.97;5093788;28;20381;-75
2023/11/05 08:27:02;;;;;;;11.60;3.50;;;;;;;9.68;100.00;97199.72;5094736;28;20036;-75
2023/11/05 08:29:27;;;;;;;10.68;2.85;;;;;;;9.68;100.00;97197.09;5093569;28;20040;-75
2023/11/05 08:31:52;;;;;;;4.45;2.38;;;;;;;9.72;100.00;97211.53;5094765;28;20095;-75
2023/11/05 08:34:18;;;;;;;6.55;2.22;;;;;;;9.74;100.00;97218.25;5094309;28;20043;-75
2023/11/05 08:36:43;;;;;;;6.80;2.53;;;;;;;9.74;100.00;97210.41;5093650;28;20377;-75
2023/11/05 08:39:09;;;;;;;4.82;1.95;;;;;;;9.77;100.00;97220.59;5094360;28;20355;-75
2023/11/05 08:41:34;;;;;;;4.65;2.08;;;;;;;9.76;100.00;97218.91;5093871;28;20495;-75
2023/11/05 08:44:00;;;;;;;4.45;2.00;;;;;;;9.77;100.00;97215.34;5093851;28;20040;-76
2023/11/05 08:46:25;;;;;;;9.80;3.20;;;;;;;9.78;100.00;97224.81;5089537;28;20024;-75
2023/11/05 08:48:50;;;;;;;8.45;2.70;;;;;;;9.80;100.00;97229.91;5078720;28;20402;-75
2023/11/05 08:51:28;;;;;;;7.10;2.20;;;;;;;9.82;100.00;97227.97;5075485;28;20044;-75
2023/11/05 08:53:54;;;;;;;10.82;3.53;;;;;;;9.78;100.00;97240.50;5076075;28;20039;-75
2023/11/05 08:56:20;;;;;;;9.55;3.47;;;;;;;9.79;100.00;97243.97;5075869;28;20262;-75
2023/11/05 08:58:46;;;;;;;7.45;2.83;;;;;;;9.78;100.00;97252.75;5056691;28;20036;-75
2023/11/05 09:01:12;;;;;;;11.52;3.53;;;;;;;9.78;100.00;97258.78;5075502;28;20103;-75
2023/11/05 09:03:37;;;;;;;13.05;3.92;;;;;;;9.82;100.00;97261.94;5056456;28;20036;-75
2023/11/05 09:06:03;;;;;;;9.82;4.10;;;;;;;9.79;100.00;97264.88;5075098;28;20044;-75
2023/11/05 09:08:29;;;;;;;10.07;3.90;;;;;;;9.79;100.00;97262.25;5072761;28;20040;-75
2023/11/05 09:10:54;;;;;;;19.70;5.13;;;;;;;9.78;100.00;97279.69;5055797;28;20070;-75
2023/11/05 09:13:19;;;;;;;10.63;4.15;;;;;;;9.78;100.00;97277.09;5085552;28;20359;-75
2023/11/05 09:15:49;;;;;;;7.43;3.50;;;;;;;9.80;100.00;97290.84;5095162;28;20258;-75
2023/11/05 09:18:18;;;;;;;7.20;3.95;;;;;;;9.82;100.00;97295.91;5095435;28;20039;-75
2023/11/05 09:20:43;;;;;;;;;;;;;;;9.83;100.00;97304.59;5095226;28;20499;-75
2023/11/05 09:23:08;;;;;;;5.27;3.80;;;;;;;9.80;100.00;97309.16;5076788;28;19916;-75
2023/11/05 09:25:34;;;;;;;8.40;3.97;;;;;;;9.82;100.00;97322.03;5076928;28;20509;-75
2023/11/05 09:28:00;;;;;;;7.30;3.00;;;;;;;9.82;100.00;97327.28;5094406;28;20035;-75
2023/11/05 09:30:25;;;;;;;7.68;3.35;;;;;;;9.85;100.00;97328.78;5095199;28;20267;-75
2023/11/05 09:32:51;;;;;;;5.72;2.25;;;;;;;9.84;100.00;97334.97;5094073;28;20395;-75
2023/11/05 09:35:17;;;;;;;8.02;2.25;;;;;;;9.80;100.00;97350.97;5094449;28;20059;-75
2023/11/05 09:37:44;;;;;;;3.58;2.00;;;;;;;9.84;100.00;97361.09;5095034;28;20081;-75
2023/11/05 09:40:14;;;;;;;2.80;1.55;;;;;;;9.88;100.00;97375.56;5095169;28;20035;-75
2023/11/05 09:43:01;;;;;;;2.78;1.15;;;;;;;9.90;100.00;97381.47;5094828;28;20036;-75
2023/11/05 09:45:33;;;;;;;3.25;1.50;;;;;;;9.91;100.00;97383.91;5090905;28;20081;-75
2023/11/05 09:48:01;;;;;;;2.30;1.38;;;;;;;9.94;100.00;97403.72;5082348;28;20332;-75
2023/11/05 09:50:27;;;;;;;3.42;1.23;;;;;;;9.97;100.00;97400.84;5077442;28;20081;-75
2023/11/05 09:52:52;;;;;;;1.67;1.00;;;;;;;10.00;100.00;97408.38;5083421;28;20131;-75
2023/11/05 09:55:19;;;;;;;0.85;0.60;;;;;;;10.02;100.00;97414.28;5091846;28;20047;-75
2023/11/05 09:57:44;;;;;;;0.98;0.75;;;;;;;10.05;100.00;97423.66;5093409;28;20074;-75
2023/11/05 10:00:11;;;;;;;1.08;0.75;;;;;;;10.08;100.00;97436.44;5094447;28;20040;-75
2023/11/05 10:02:58;;;;;;;3.38;1.00;;;;;;;10.09;100.00;97446.75;5093938;28;20035;-75
2023/11/05 10:05:26;;;;;;;4.47;1.33;;;;;;;10.09;100.00;97459.00;5093825;28;20059;-75
2023/11/05 10:07:52;;;;;;;2.00;1.38;;;;;;;10.12;100.00;97471.78;5094502;28;20370;-75
2023/11/05 10:10:17;;;;;;;6.78;2.30;;;;;;;10.10;100.00;97469.31;5064960;28;20393;-75
2023/11/05 10:12:43;;;;;;;9.88;2.30;;;;;;;10.11;100.00;97485.81;5090031;28;20061;-75
2023/11/05 10:15:09;;;;;;;6.50;2.40;;;;;;;10.13;100.00;97492.56;5094488;28;20043;-75
2023/11/05 10:17:35;;;;;;;3.92;1.95;;;;;;;10.16;100.00;97502.72;5093770;28;20050;-75
2023/11/05 10:20:00;;;;;;;7.00;1.88;;;;;;;10.18;100.00;97502.59;5093952;28;20040;-75
2023/11/05 10:22:26;;;;;;;3.15;1.40;;;;;;;10.19;100.00;97514.72;5075553;28;20051;-75
2023/11/05 10:24:51;;;;;;;3.92;1.65;;;;;;;10.20;100.00;97526.81;5084352;28;20047;-75
2023/11/05 10:27:27;;;;;;;4.13;2.10;;;;;;;10.21;100.00;97525.03;5073638;28;20253;-75
2023/11/05 10:29:56;;;;;;;3.05;1.77;;;;;;;10.22;100.00;97527.50;5073585;28;20040;-75
2023/11/05 10:32:23;;;;;;;2.35;1.40;;;;;;;10.23;100.00;97538.78;5073249;28;20315;-75
2023/11/05 10:34:51;;;;;;;3.97;1.48;;;;;;;10.26;100.00;97552.41;5072350;28;20343;-75
2023/11/05 10:37:17;;;;;;;2.45;1.40;;;;;;;10.27;100.00;97554.03;5073118;28;20109;-75
2023/11/05 10:39:42;;;;;;;2.00;1.50;;;;;;;10.30;100.00;97552.97;5073189;28;20419;-75
2023/11/05 10:42:12;;;;;;;3.05;1.50;;;;;;;10.32;100.00;97559.72;5073528;28;20351;-75
2023/11/05 10:44:47;;;;;;;3.42;1.83;;;;;;;10.32;100.00;97564.13;5086109;28;20124;-75
2023/11/05 10:47:14;;;;;;;4.03;1.75;;;;;;;10.32;100.00;97572.78;5093206;28;20212;-75
2023/11/05 10:49:42;;;;;;;5.18;2.58;;;;;;;10.31;100.00;97572.94;5088601;28;20048;-75
2023/11/05 10:52:09;;;;;;;4.22;1.75;;;;;;;10.29;100.00;97582.69;5072074;28;20130;-75
2023/11/05 10:54:37;;;;;;;2.17;1.80;;;;;;;10.28;100.00;97581.88;5071586;28;20029;-75
2023/11/05 10:57:41;;;;;;;7.30;2.35;;;;;;;10.23;100.00;97593.72;5072265;28;20067;-75
2023/11/05 11:00:27;;;;;;;4.65;2.08;;;;;;;10.22;100.00;97605.13;5071243;28;20073;-75
2023/11/05 11:02:59;;;;;;;5.63;2.20;;;;;;;10.18;100.00;97608.00;5071804;28;20404;-75
2023/11/05 11:05:39;;;;;;;6.57;2.20;;;;;;;10.21;100.00;97606.09;5071370;28;20086;-75
2023/11/05 11:08:06;;;;;;;4.97;2.13;;;;;;;10.21;100.00;97621.81;5071824;28;20032;-75
2023/11/05 11:10:37;;;;;;;5.20;2.72;;;;;;;10.19;100.00;97622.75;5071209;28;20358;-75
2023/11/05 11:13:10;;;;;;;6.65;2.90;;;;;;;10.17;100.00;97629.91;5072454;28;20098;-75
2023/11/05 11:15:36;;;;;;;2.80;2.25;;;;;;;10.19;100.00;97632.38;5071591;28;20032;-75
2023/11/05 11:18:03;;;;;;;3.00;2.58;;;;;;;10.20;100.00;97639.25;5072591;28;20348;-75
2023/11/05 11:20:31;;;;;;;2.42;2.10;;;;;;;10.20;100.00;97644.47;5072018;28;20361;-75
2023/11/05 11:23:01;;;;;;;4.57;2.03;;;;;;;10.23;100.00;97648.63;5072670;28;20198;-75
2023/11/05 11:25:27;;;;;;;12.25;2.50;;;;;;;10.21;100.00;97666.25;5072189;28;20044;-75
2023/11/05 11:27:52;;;;;;;3.65;2.30;;;;;;;10.22;100.00;97673.13;5072778;28;20042;-75
2023/11/05 11:30:18;;;;;;;5.38;2.58;;;;;;;10.26;100.00;97679.72;5072177;28;20036;-75